Time;durP1;ratioP1;P1;durP2;ratioP2;P2;SDS_P1;SDS_P2;PMS_P1;PMS_P2;Temp;Humidity;BMP_temperature;BMP_pressure;BME280_temperature;BME280_humidity;BME280_pressure;Samples;Min_cycle;Max_cycle;Signal;HPM_P1;HPM_P2
2020/12/03 00:02:07;;;;;;;46.05;32.83;;;;;;;-1.48;86.21;101333.70;1749928;82;21515;-78
2020/12/03 00:05:13;;;;;;;71.07;54.05;;;;;;;-1.49;86.14;101317.20;1753977;81;21805;-79
2020/12/03 00:08:19;;;;;;;63.28;49.18;;;;;;;-1.49;85.93;101321.70;1757085;81;21305;-78
2020/12/03 00:11:26;;;;;;;46.28;33.67;;;;;;;-1.50;85.90;101330.23;1756058;81;21763;-78
2020/12/03 00:14:32;;;;;;;63.95;47.50;;;;;;;-1.50;85.90;101335.60;1757071;81;21318;-78
2020/12/03 00:17:37;;;;;;;55.15;41.45;;;;;;;-1.53;85.88;101336.22;1755635;81;21330;-78
2020/12/03 00:20:43;;;;;;;49.33;32.20;;;;;;;-1.55;86.04;101332.27;1755980;81;21355;-79
2020/12/03 00:23:49;;;;;;;44.18;28.80;;;;;;;-1.56;86.11;101329.17;1757493;81;21177;-79
2020/12/03 00:26:54;;;;;;;60.67;44.45;;;;;;;-1.53;86.21;101329.50;1757281;81;21237;-78
2020/12/03 00:30:00;;;;;;;41.02;24.75;;;;;;;-1.52;86.24;101333.45;1755675;81;21216;-77
2020/12/03 00:33:24;;;;;;;45.20;31.15;;;;;;;-1.49;86.15;101333.31;1756934;81;21322;-78
2020/12/03 00:36:30;;;;;;;41.60;25.20;;;;;;;-1.46;86.00;101333.14;1757065;81;21260;-78
2020/12/03 00:39:36;;;;;;;64.75;43.15;;;;;;;-1.45;85.86;101324.17;1756990;81;21766;-79
2020/12/03 00:42:42;;;;;;;51.70;39.88;;;;;;;-1.48;85.68;101323.44;1755634;81;21354;-78
2020/12/03 00:45:49;;;;;;;47.70;34.92;;;;;;;-1.52;85.73;101321.84;1756965;81;22555;-78
2020/12/03 00:48:54;;;;;;;53.38;37.93;;;;;;;-1.57;85.89;101322.94;1756918;81;21216;-78
2020/12/03 00:52:01;;;;;;;62.85;45.40;;;;;;;-1.55;86.00;101320.20;1756187;81;21669;-78
2020/12/03 00:55:07;;;;;;;53.52;38.78;;;;;;;-1.56;86.13;101317.09;1757105;81;21299;-78
2020/12/03 00:58:14;;;;;;;47.08;27.82;;;;;;;-1.54;86.24;101316.56;1757068;81;21188;-78
2020/12/03 01:01:21;;;;;;;49.38;37.40;;;;;;;-1.53;86.18;101320.98;1756829;81;21839;-77
2020/12/03 01:04:27;;;;;;;43.05;26.02;;;;;;;-1.49;86.16;101324.39;1757347;81;21612;-78
2020/12/03 01:07:33;;;;;;;37.90;24.30;;;;;;;-1.45;86.12;101317.46;1757201;81;21858;-78
2020/12/03 01:10:41;;;;;;;39.27;25.43;;;;;;;-1.43;85.94;101316.90;1757171;81;21302;-78
2020/12/03 01:13:47;;;;;;;44.65;28.12;;;;;;;-1.41;85.78;101321.73;1757265;81;21342;-78
2020/12/03 01:16:54;;;;;;;39.13;23.47;;;;;;;-1.41;85.72;101320.39;1757148;81;21342;-78
2020/12/03 01:20:00;;;;;;;69.75;52.20;;;;;;;-1.35;85.75;101325.45;1757139;81;21197;-78
2020/12/03 01:23:06;;;;;;;37.05;24.60;;;;;;;-1.28;85.61;101317.95;1755998;81;21735;-78
2020/12/03 01:26:13;;;;;;;60.85;47.53;;;;;;;-1.25;85.41;101320.97;1757562;81;21307;-78
2020/12/03 01:29:19;;;;;;;45.58;30.88;;;;;;;-1.20;85.29;101324.30;1755778;81;21307;-78
2020/12/03 01:32:25;;;;;;;124.25;107.27;;;;;;;-1.21;85.15;101326.11;1756262;81;21828;-78
2020/12/03 01:35:32;;;;;;;39.60;21.62;;;;;;;-1.21;85.12;101327.93;1757186;81;21331;-77
2020/12/03 01:38:38;;;;;;;46.80;28.57;;;;;;;-1.21;85.20;101323.91;1757306;81;21322;-77
2020/12/03 01:41:44;;;;;;;42.30;22.52;;;;;;;-1.24;85.24;101328.07;1756954;81;21335;-78
2020/12/03 01:44:53;;;;;;;37.38;22.13;;;;;;;-1.31;85.46;101323.49;1757166;81;21200;-78
2020/12/03 01:47:59;;;;;;;45.90;32.13;;;;;;;-1.30;85.78;101323.41;1756840;81;21220;-78
2020/12/03 01:51:05;;;;;;;42.83;24.67;;;;;;;-1.27;85.94;101323.74;1757260;81;21363;-78
2020/12/03 01:54:21;;;;;;;49.45;26.33;;;;;;;-1.31;86.09;101320.33;1757202;81;21339;-78
2020/12/03 01:57:32;;;;;;;42.55;23.15;;;;;;;-1.35;86.35;101323.24;1757289;81;21307;-77
2020/12/03 02:00:37;;;;;;;69.15;53.20;;;;;;;-1.40;86.63;101323.47;1752646;81;21184;-78
2020/12/03 02:03:53;;;;;;;51.05;32.60;;;;;;;-1.42;86.90;101314.61;1755803;81;21350;-78
2020/12/03 02:07:08;;;;;;;58.13;41.40;;;;;;;-1.41;87.15;101315.03;1734250;81;21338;-78
2020/12/03 02:10:14;;;;;;;49.18;31.80;;;;;;;-1.34;87.31;101313.77;1757395;81;21192;-77
2020/12/03 02:13:21;;;;;;;79.95;58.28;;;;;;;-1.31;87.30;101314.97;1756311;81;21204;-78
2020/12/03 02:16:31;;;;;;;56.85;41.28;;;;;;;-1.31;87.20;101310.94;1757244;81;21339;-78
2020/12/03 02:19:39;;;;;;;72.32;48.83;;;;;;;-1.30;87.25;101307.78;1756010;81;21204;-78
2020/12/03 02:22:46;;;;;;;68.75;46.13;;;;;;;-1.22;87.33;101314.09;1756791;81;21397;-79
2020/12/03 02:25:52;;;;;;;61.77;34.98;;;;;;;-1.21;87.32;101314.03;1755612;81;21350;-79
2020/12/03 02:28:56;;;;;;;45.67;24.75;;;;;;;-1.21;87.40;101307.80;1757208;81;21291;-80
2020/12/03 02:32:02;;;;;;;45.25;27.87;;;;;;;-1.18;87.51;101311.64;1757271;81;21287;-80
2020/12/03 02:35:08;;;;;;;52.45;28.67;;;;;;;-1.15;87.54;101318.22;1755679;81;21228;-78
2020/12/03 02:38:14;;;;;;;48.23;28.07;;;;;;;-1.16;87.62;101316.48;1755981;81;21267;-79
2020/12/03 02:41:21;;;;;;;41.68;22.00;;;;;;;-1.18;87.72;101307.62;1757152;81;21311;-79
2020/12/03 02:44:29;;;;;;;54.93;31.73;;;;;;;-1.26;87.89;101306.69;1755800;81;21347;-78
2020/12/03 02:47:35;;;;;;;80.03;53.08;;;;;;;-1.27;88.24;101308.08;1757228;81;21879;-78
2020/12/03 02:50:41;;;;;;;56.73;30.72;;;;;;;-1.29;88.51;101307.69;1757295;81;21308;-79
2020/12/03 02:53:47;;;;;;;79.72;58.60;;;;;;;-1.30;88.74;101309.12;1756368;81;21976;-78
2020/12/03 02:56:53;;;;;;;46.40;28.15;;;;;;;-1.29;88.90;101319.77;1757223;81;21295;-79
2020/12/03 02:59:58;;;;;;;74.80;48.20;;;;;;;-1.31;89.02;101310.94;1757059;81;21613;-79
2020/12/03 03:03:04;;;;;;;62.25;37.75;;;;;;;-1.27;89.15;101305.39;1756820;81;21338;-78
2020/12/03 03:06:10;;;;;;;56.83;34.23;;;;;;;-1.22;89.25;101307.38;1755833;81;21507;-78
2020/12/03 03:09:16;;;;;;;55.15;31.52;;;;;;;-1.27;89.31;101299.58;1748648;81;21776;-78
2020/12/03 03:12:22;;;;;;;58.92;39.25;;;;;;;-1.27;89.42;101308.08;1751537;82;21831;-78
2020/12/03 03:15:29;;;;;;;59.75;38.65;;;;;;;-1.25;89.50;101307.55;1749956;82;21240;-79
2020/12/03 03:18:34;;;;;;;63.83;38.60;;;;;;;-1.27;89.61;101305.39;1751385;82;22468;-79
2020/12/03 03:21:40;;;;;;;88.75;63.40;;;;;;;-1.26;89.78;101304.00;1751456;82;21715;-79
2020/12/03 03:24:47;;;;;;;73.12;49.65;;;;;;;-1.23;89.87;101294.91;1750260;82;21322;-78
2020/12/03 03:27:52;;;;;;;69.67;46.58;;;;;;;-1.21;89.97;101297.05;1751578;82;21312;-78
2020/12/03 03:30:58;;;;;;;70.22;49.18;;;;;;;-1.23;90.03;101297.11;1750063;82;21829;-79
2020/12/03 03:34:04;;;;;;;64.70;35.92;;;;;;;-1.24;90.12;101293.17;1750861;82;21355;-79
2020/12/03 03:37:10;;;;;;;63.15;35.25;;;;;;;-1.30;90.27;101297.04;1750884;81;21378;-78
2020/12/03 03:40:15;;;;;;;71.90;47.30;;;;;;;-1.29;90.47;101298.30;1727060;82;21366;-79
2020/12/03 03:43:21;;;;;;;59.27;33.98;;;;;;;-1.35;90.65;101298.61;1751396;82;21394;-78
2020/12/03 03:46:27;;;;;;;76.02;47.08;;;;;;;-1.35;90.90;101297.27;1751603;82;21304;-78
2020/12/03 03:49:33;;;;;;;79.45;48.73;;;;;;;-1.37;91.03;101288.88;1751519;82;21299;-77
2020/12/03 03:52:39;;;;;;;67.22;36.10;;;;;;;-1.38;91.21;101297.89;1751418;82;21346;-78
2020/12/03 03:55:45;;;;;;;57.40;33.73;;;;;;;-1.38;91.45;101298.75;1750697;82;21329;-78
2020/12/03 03:58:51;;;;;;;53.15;32.00;;;;;;;-1.32;91.70;101297.13;1751498;82;21350;-78
2020/12/03 04:01:56;;;;;;;63.83;42.25;;;;;;;-1.24;91.75;101303.44;1751464;82;21316;-78
2020/12/03 04:05:03;;;;;;;68.72;41.18;;;;;;;-1.22;91.70;101301.56;1750481;82;21280;-78
2020/12/03 04:08:09;;;;;;;57.08;25.05;;;;;;;-1.25;91.66;101303.52;1751559;82;21196;-78
2020/12/03 04:11:16;;;;;;;68.00;43.38;;;;;;;-1.25;91.73;101311.09;1750432;82;21323;-78
2020/12/03 04:14:22;;;;;;;60.25;34.38;;;;;;;-1.19;91.81;101305.41;1751063;82;21271;-79
2020/12/03 04:17:27;;;;;;;59.48;34.75;;;;;;;-1.18;91.78;101308.96;1751476;82;21346;-78
2020/12/03 04:20:32;;;;;;;78.35;56.98;;;;;;;-1.20;91.74;101306.84;1751431;82;21303;-78
2020/12/03 04:23:39;;;;;;;49.13;24.40;;;;;;;-1.17;91.78;101313.41;1751142;82;21363;-79
2020/12/03 04:26:44;;;;;;;40.95;21.33;;;;;;;-1.14;91.81;101314.10;1749894;82;21342;-79
2020/12/03 04:29:49;;;;;;;56.88;26.75;;;;;;;-1.09;91.80;101312.05;1751157;82;21311;-78
2020/12/03 04:32:54;;;;;;;54.83;28.73;;;;;;;-1.11;91.69;101305.04;1747332;81;21870;-78
2020/12/03 04:35:58;;;;;;;49.33;21.23;;;;;;;-1.09;91.68;101308.50;1720640;82;21175;-78
2020/12/03 04:39:05;;;;;;;57.38;31.05;;;;;;;-1.05;91.68;101292.16;1721726;83;21291;-78
2020/12/03 04:42:10;;;;;;;71.42;50.95;;;;;;;-1.01;91.60;101308.98;1721436;83;21327;-79
2020/12/03 04:45:39;;;;;;;76.20;43.23;;;;;;;-1.01;91.43;101312.16;1725298;82;21335;-79
2020/12/03 04:49:24;;;;;;;64.22;28.98;;;;;;;-1.04;91.32;101317.19;1733023;81;21748;-77
2020/12/03 04:53:03;;;;;;;58.35;36.00;;;;;;;-1.01;91.35;101321.08;1731549;81;21228;-79
2020/12/03 04:56:19;;;;;;;45.63;26.82;;;;;;;-1.02;91.30;101318.00;1720274;83;21339;-78
2020/12/03 04:59:38;;;;;;;58.78;33.10;;;;;;;-1.01;91.32;101329.61;1721866;82;21358;-77
2020/12/03 05:03:03;;;;;;;77.55;48.87;;;;;;;-0.99;91.29;101330.38;1706689;83;21339;-79
2020/12/03 05:06:45;;;;;;;60.38;35.80;;;;;;;-1.00;91.23;101332.20;1728871;81;21845;-79
2020/12/03 05:10:10;;;;;;;;;;;;;;;-0.96;91.24;101343.19;1733280;82;21219;-78
2020/12/03 05:13:34;;;;;;;93.62;59.77;;;;;;;-0.96;91.10;101335.14;1713051;83;20306;-79
2020/12/03 05:16:51;;;;;;;72.17;44.45;;;;;;;-1.00;91.11;101330.86;1710661;83;21751;-78
2020/12/03 05:20:38;;;;;;;77.87;51.30;;;;;;;-1.00;91.17;101326.83;1692021;84;21491;-79
2020/12/03 05:23:43;;;;;;;83.70;54.23;;;;;;;-1.00;91.19;101330.86;1707458;83;21209;-79
2020/12/03 05:26:50;;;;;;;70.80;43.63;;;;;;;-0.98;91.32;101337.05;1710888;83;21335;-79
2020/12/03 05:29:56;;;;;;;68.15;41.50;;;;;;;-0.95;91.35;101334.66;1711762;83;21245;-78
2020/12/03 05:33:01;;;;;;;65.47;42.80;;;;;;;-0.94;91.37;101331.02;1707615;83;21822;-78
2020/12/03 05:36:07;;;;;;;60.00;34.03;;;;;;;-0.97;91.38;101334.75;1683482;83;21270;-77
2020/12/03 05:39:17;;;;;;;60.92;29.72;;;;;;;-0.98;91.43;101337.05;1708151;83;21467;-77
2020/12/03 05:42:29;;;;;;;82.65;49.93;;;;;;;-0.97;91.53;101339.25;1709804;83;21240;-78
2020/12/03 05:45:38;;;;;;;68.33;43.13;;;;;;;-0.90;91.63;101332.61;1701221;83;21848;-78
2020/12/03 05:48:43;;;;;;;65.12;44.35;;;;;;;-0.86;91.59;101336.40;1682605;83;21327;-78
2020/12/03 05:51:49;;;;;;;75.32;44.30;;;;;;;-0.85;91.55;101343.98;1706405;83;21514;-77
2020/12/03 05:55:19;;;;;;;71.17;48.60;;;;;;;-0.87;91.50;101344.07;1700093;83;21286;-78
2020/12/03 05:58:38;;;;;;;69.35;40.23;;;;;;;-0.90;91.57;101341.53;1717386;81;21365;-79
2020/12/03 06:01:44;;;;;;;69.72;43.90;;;;;;;-0.90;91.70;101350.94;1715278;83;21180;-78
2020/12/03 06:05:00;;;;;;;103.83;77.58;;;;;;;-0.90;91.82;101348.24;1709345;83;21361;-78
2020/12/03 06:08:29;;;;;;;62.75;36.75;;;;;;;-0.92;91.91;101350.16;1706785;83;21921;-77
2020/12/03 06:12:08;;;;;;;86.70;52.33;;;;;;;-0.95;92.04;101352.12;1650634;81;21374;-79
2020/12/03 06:15:34;;;;;;;67.20;34.33;;;;;;;-0.94;92.18;101354.75;1740582;81;21357;-79
2020/12/03 06:18:56;;;;;;;117.82;84.45;;;;;;;-0.88;92.34;101355.77;1736423;81;21536;-79
2020/12/03 06:22:22;;;;;;;72.58;46.80;;;;;;;-0.80;92.39;101351.33;1745293;81;21299;-78
2020/12/03 06:26:17;;;;;;;81.57;46.45;;;;;;;-0.81;92.34;101344.23;1735302;81;21343;-79
2020/12/03 06:29:51;;;;;;;110.08;84.47;;;;;;;-0.85;92.28;101340.85;1741495;81;21751;-82
2020/12/03 06:33:36;;;;;;;52.48;33.33;;;;;;;-0.79;92.44;101349.93;1741685;81;21307;-78
2020/12/03 06:36:47;;;;;;;115.15;86.17;;;;;;;-0.79;92.43;101340.53;1735470;81;21673;-78
2020/12/03 06:40:04;;;;;;;112.50;82.78;;;;;;;-0.82;92.41;101338.47;1735120;81;21314;-78
2020/12/03 06:43:32;;;;;;;55.00;27.95;;;;;;;-0.86;92.46;101334.19;1736472;81;21909;-79
2020/12/03 06:47:01;;;;;;;89.25;56.88;;;;;;;-0.85;92.60;101337.27;1697357;81;21890;-80
2020/12/03 06:50:18;;;;;;;52.15;28.15;;;;;;;-0.88;92.75;101330.73;1718087;81;21239;-79
2020/12/03 06:53:44;;;;;;;77.92;49.18;;;;;;;-0.87;92.86;101337.36;1718285;81;21220;-79
2020/12/03 06:57:16;;;;;;;59.63;30.45;;;;;;;-0.77;93.02;101339.96;1737704;81;21883;-79
2020/12/03 07:00:39;;;;;;;66.70;41.53;;;;;;;-0.70;92.92;101346.39;1741801;81;21230;-79
2020/12/03 07:04:15;;;;;;;103.45;80.30;;;;;;;-0.69;92.78;101348.12;1735594;81;21314;-79
2020/12/03 07:07:51;;;;;;;87.70;62.43;;;;;;;-0.70;92.54;101345.91;1724580;81;21219;-79
2020/12/03 07:11:19;;;;;;;119.05;90.05;;;;;;;-0.73;92.42;101350.09;1738927;81;21288;-79
2020/12/03 07:15:19;;;;;;;85.00;59.18;;;;;;;-0.77;92.44;101350.70;1725870;82;21212;-79
2020/12/03 07:18:41;;;;;;;61.35;34.33;;;;;;;-0.78;92.46;101363.75;1728319;82;21366;-79
2020/12/03 07:22:17;;;;;;;52.38;24.43;;;;;;;-0.70;92.50;101357.13;1726769;82;21839;-79
2020/12/03 07:25:28;;;;;;;63.30;36.03;;;;;;;-0.69;92.41;101359.73;1729494;82;21838;-78
2020/12/03 07:28:43;;;;;;;99.03;59.95;;;;;;;-0.64;92.35;101352.78;1721180;82;21342;-79
2020/12/03 07:31:50;;;;;;;62.80;35.35;;;;;;;-0.64;92.17;101371.11;1699574;82;21276;-78
2020/12/03 07:35:00;;;;;;;117.80;87.62;;;;;;;-0.65;92.01;101367.17;1724842;82;21287;-82
2020/12/03 07:38:27;;;;;;;105.23;78.10;;;;;;;-0.65;91.96;101373.88;1726026;82;21353;-79
2020/12/03 07:41:38;;;;;;;70.12;35.90;;;;;;;-0.61;91.96;101367.38;1725815;82;21322;-79
2020/12/03 07:44:53;;;;;;;56.95;35.60;;;;;;;-0.59;91.82;101378.94;1726933;82;21310;-78
2020/12/03 07:48:41;;;;;;;74.82;36.68;;;;;;;-0.54;91.79;101379.56;1729403;82;21318;-79
2020/12/03 07:51:46;;;;;;;75.03;49.25;;;;;;;-0.47;91.71;101393.09;1727110;82;21303;-78
2020/12/03 07:54:53;;;;;;;59.95;37.08;;;;;;;-0.46;91.48;101391.28;1727335;82;21291;-79
2020/12/03 07:58:05;;;;;;;87.00;47.27;;;;;;;-0.45;91.31;101392.53;1721316;82;21302;-78
2020/12/03 08:01:38;;;;;;;58.98;32.00;;;;;;;-0.47;91.15;101394.44;1727144;82;21169;-78
2020/12/03 08:04:45;;;;;;;76.65;47.88;;;;;;;-0.52;91.01;101385.27;1728659;82;21303;-79
2020/12/03 08:07:54;;;;;;;104.83;74.40;;;;;;;-0.50;91.07;101391.03;1732737;82;21363;-77
2020/12/03 08:11:00;;;;;;;94.47;56.70;;;;;;;-0.47;91.04;101393.09;1732648;82;21276;-78
2020/12/03 08:14:08;;;;;;;93.65;59.63;;;;;;;-0.46;90.94;101398.86;1727668;82;21311;-80
2020/12/03 08:17:32;;;;;;;71.67;39.58;;;;;;;-0.46;90.75;101388.11;1726170;82;21339;-78
2020/12/03 08:20:51;;;;;;;65.37;37.50;;;;;;;-0.41;90.65;101391.91;1726119;82;21228;-80
2020/12/03 08:23:59;;;;;;;83.77;48.77;;;;;;;-0.35;90.56;101383.03;1779351;79;21326;-81
2020/12/03 08:27:24;;;;;;;71.80;43.50;;;;;;;-0.33;90.45;101382.94;1783524;79;21280;-80
2020/12/03 08:30:50;;;;;;;68.95;46.05;;;;;;;-0.27;90.36;101391.57;1785876;79;21866;-78
2020/12/03 08:33:58;;;;;;;80.10;49.20;;;;;;;-0.20;90.29;101393.45;1780704;79;22248;-81
2020/12/03 08:37:04;;;;;;;59.05;28.70;;;;;;;-0.14;90.03;101384.18;1773746;79;21382;-81
2020/12/03 08:40:11;;;;;;;68.45;42.98;;;;;;;-0.08;89.81;101391.95;1782493;79;21217;-82
2020/12/03 08:43:21;;;;;;;58.98;32.75;;;;;;;-0.01;89.58;101386.61;1778068;79;21209;-81
2020/12/03 08:46:31;;;;;;;58.65;30.72;;;;;;;0.05;89.27;101379.58;1780762;79;21181;-80
2020/12/03 08:49:40;;;;;;;76.85;46.80;;;;;;;0.06;88.93;101377.27;1776639;79;22448;-82
2020/12/03 08:53:26;;;;;;;;;;;;;;;;;;;;;
2020/12/03 08:57:18;;;;;;;48.58;25.10;;;;;;;0.06;88.51;101380.45;1679787;79;21214;-81
2020/12/03 09:00:24;;;;;;;55.73;32.13;;;;;;;0.10;88.45;101374.81;1749462;81;21331;-81
2020/12/03 09:03:32;;;;;;;51.80;24.67;;;;;;;0.09;88.28;101371.70;1779413;79;21901;-81
2020/12/03 09:06:47;;;;;;;47.08;23.90;;;;;;;0.06;88.26;101362.48;1783534;79;21185;-81
2020/12/03 09:09:53;;;;;;;71.57;45.50;;;;;;;-0.01;88.23;101355.68;1780218;79;21189;-79
2020/12/03 09:12:59;;;;;;;129.53;100.12;;;;;;;-0.11;88.38;101350.41;1782018;79;21245;-86
2020/12/03 09:16:14;;;;;;;67.95;41.68;;;;;;;-0.13;88.71;101350.98;1792844;79;21303;-79
2020/12/03 09:19:36;;;;;;;104.65;65.40;;;;;;;-0.08;88.93;101350.25;1729731;80;21177;-80
2020/12/03 09:22:51;;;;;;;74.55;44.80;;;;;;;-0.09;88.86;101351.22;1743469;81;21181;-80
2020/12/03 09:26:01;;;;;;;70.67;43.38;;;;;;;-0.12;88.95;101344.16;1739702;81;21329;-80
2020/12/03 09:29:12;;;;;;;108.85;76.30;;;;;;;-0.11;89.07;101336.96;1714359;81;21216;-80
2020/12/03 09:32:25;;;;;;;83.62;51.75;;;;;;;-0.11;89.15;101329.76;1734431;81;21921;-80
2020/12/03 09:35:39;;;;;;;82.47;41.17;;;;;;;-0.15;89.20;101319.25;1739198;81;21307;-80
2020/12/03 09:38:49;;;;;;;61.02;34.60;;;;;;;-0.13;89.35;101312.85;1737525;81;21353;-80
2020/12/03 09:41:55;;;;;;;139.92;98.70;;;;;;;-0.05;89.55;101311.06;1737617;81;21863;-80
2020/12/03 09:45:20;;;;;;;85.20;55.40;;;;;;;-0.09;89.49;101310.88;1734248;81;21370;-81
2020/12/03 09:48:30;;;;;;;70.52;35.95;;;;;;;-0.16;89.54;101298.22;1736061;81;21275;-79
2020/12/03 09:51:53;;;;;;;92.97;58.20;;;;;;;-0.15;89.84;101291.02;1715890;81;21224;-79
2020/12/03 09:55:04;;;;;;;84.80;51.55;;;;;;;-0.14;90.05;101291.39;1734792;81;21267;-79
2020/12/03 09:58:17;;;;;;;64.92;33.38;;;;;;;-0.16;90.12;101301.38;1736026;81;21200;-79
2020/12/03 10:05:33;;;;;;;82.55;47.90;;;;;;;-0.08;90.30;101267.74;1632529;84;22070;-79
2020/12/03 10:09:12;;;;;;;89.50;57.05;;;;;;;-0.05;90.13;101276.10;1603073;87;21374;-81
2020/12/03 10:13:08;;;;;;;75.40;50.67;;;;;;;-0.12;90.00;101276.93;1615467;87;21842;-81
2020/12/03 10:16:20;;;;;;;122.50;86.28;;;;;;;-0.15;90.23;101277.09;1627906;86;21272;-80
2020/12/03 10:19:25;;;;;;;58.15;30.75;;;;;;;-0.17;90.41;101283.52;1625119;86;21977;-81
2020/12/03 10:23:10;;;;;;;95.22;65.12;;;;;;;-0.21;90.71;101280.59;1628926;86;21362;-82
2020/12/03 10:31:14;;;;;;;56.83;26.85;;;;;;;-0.18;90.73;101273.72;1568945;89;21295;-82
2020/12/03 10:34:54;;;;;;;114.50;83.95;;;;;;;-0.22;90.91;101278.88;1606526;84;21810;-82
2020/12/03 10:38:10;;;;;;;54.63;26.35;;;;;;;-0.19;91.09;101273.30;1655995;84;21417;-81
2020/12/03 10:41:46;;;;;;;60.15;31.87;;;;;;;-0.17;91.19;101253.46;1650683;85;21365;-81
2020/12/03 10:45:25;;;;;;;72.03;43.38;;;;;;;-0.14;91.25;101255.99;1647973;84;21314;-80
2020/12/03 10:49:00;;;;;;;69.60;34.73;;;;;;;-0.14;91.21;101268.09;1656905;85;21284;-82
2020/12/03 10:52:40;;;;;;;115.35;85.15;;;;;;;-0.21;91.27;101263.98;1505758;93;21239;-78
2020/12/03 10:56:24;;;;;;;59.27;30.15;;;;;;;-0.19;91.47;101254.48;1512526;91;21236;-81
2020/12/03 10:59:59;;;;;;;75.78;41.73;;;;;;;-0.14;91.60;101262.71;1532660;91;21252;-81
2020/12/03 11:03:59;;;;;;;98.03;63.28;;;;;;;-0.08;91.57;101266.88;1531835;91;21767;-77
2020/12/03 11:07:25;;;;;;;71.80;41.65;;;;;;;-0.05;91.41;101264.00;1512907;90;21828;-82
2020/12/03 11:10:40;;;;;;;77.53;48.85;;;;;;;0.02;91.21;101261.38;1832800;76;22365;-81
2020/12/03 11:13:49;;;;;;;77.55;35.52;;;;;;;-0.01;91.02;101266.44;1769633;78;21222;-82
2020/12/03 11:17:06;;;;;;;63.30;33.23;;;;;;;0.01;90.81;101265.50;1783511;77;21873;-81
2020/12/03 11:20:15;;;;;;;68.83;41.95;;;;;;;-0.01;90.54;101266.91;1728686;78;21914;-81
2020/12/03 11:23:28;;;;;;;63.05;31.33;;;;;;;-0.01;90.41;101270.95;1791764;79;21293;-82
2020/12/03 11:26:52;;;;;;;55.20;25.15;;;;;;;0.04;90.28;101267.52;1799447;77;21380;-82
2020/12/03 11:30:37;;;;;;;87.47;45.88;;;;;;;0.05;90.00;101266.59;1774840;77;21235;-81
2020/12/03 11:34:17;;;;;;;70.37;43.95;;;;;;;0.05;89.86;101269.28;1733123;80;21154;-82
2020/12/03 11:38:29;;;;;;;;;;;;;;;;;;;;;
2020/12/03 11:42:11;;;;;;;70.80;40.55;;;;;;;0.01;89.53;101266.84;1783281;78;21296;-82
2020/12/03 11:53:17;;;;;;;80.32;51.85;;;;;;;0.07;89.40;101262.46;1584473;85;21232;-82
2020/12/03 11:57:02;;;;;;;;;;;;;;;;;;;;;
2020/12/03 12:00:42;;;;;;;61.42;32.83;;;;;;;-0.01;89.12;101255.67;1667153;83;21348;-83
2020/12/03 12:04:12;;;;;;;85.50;57.43;;;;;;;-0.05;89.19;101247.86;1707353;82;21196;-83
2020/12/03 12:11:35;;;;;;;104.47;73.00;;;;;;;-0.14;89.55;101239.85;1694975;82;21261;-83
2020/12/03 12:15:02;;;;;;;74.07;54.58;;;;;;;-0.08;89.78;101261.50;1689027;83;21721;-83
2020/12/03 12:18:29;;;;;;;96.67;71.77;;;;;;;-0.05;89.80;101272.97;1666624;84;21335;-82
2020/12/03 12:21:41;;;;;;;79.27;46.88;;;;;;;-0.01;89.62;101274.98;1663697;84;21327;-80
2020/12/03 12:24:52;;;;;;;104.53;73.45;;;;;;;-0.04;89.19;101267.97;1664476;84;21211;-81
2020/12/03 12:28:01;;;;;;;61.23;39.30;;;;;;;-0.12;88.85;101268.86;1649036;84;21869;-81
2020/12/03 12:31:09;;;;;;;102.15;71.17;;;;;;;-0.18;88.77;101268.34;1662474;84;21223;-81
2020/12/03 12:34:15;;;;;;;100.25;69.12;;;;;;;-0.16;88.86;101264.59;1679193;84;22009;-80
2020/12/03 12:37:21;;;;;;;82.42;59.98;;;;;;;-0.12;88.80;101261.27;1678302;84;21243;-80
2020/12/03 12:40:28;;;;;;;64.90;38.83;;;;;;;-0.17;88.66;101252.11;1678249;84;21753;-81
2020/12/03 12:43:41;;;;;;;47.40;26.97;;;;;;;-0.21;88.66;101255.05;1684190;84;21337;-81
2020/12/03 12:46:53;;;;;;;57.58;35.28;;;;;;;-0.16;88.85;101265.95;1681991;84;21775;-81
2020/12/03 12:50:02;;;;;;;116.90;84.92;;;;;;;-0.09;88.87;101268.70;1680534;84;21917;-82
2020/12/03 12:53:13;;;;;;;77.12;54.30;;;;;;;-0.03;88.74;101278.25;1679033;84;21287;-81
2020/12/03 12:56:18;;;;;;;76.50;54.67;;;;;;;-0.04;88.44;101283.24;1682831;84;21290;-81
2020/12/03 12:59:23;;;;;;;117.50;89.60;;;;;;;-0.07;88.17;101279.37;1680335;84;21219;-86
2020/12/03 13:02:28;;;;;;;62.67;36.60;;;;;;;-0.08;88.16;101273.60;1679013;84;21332;-80
2020/12/03 13:05:37;;;;;;;68.83;48.85;;;;;;;-0.12;88.17;101265.31;1677774;84;21239;-80
2020/12/03 13:08:42;;;;;;;68.00;49.90;;;;;;;-0.17;88.30;101269.59;1682979;84;21362;-81
2020/12/03 13:11:50;;;;;;;84.25;62.43;;;;;;;-0.15;88.43;101277.09;1676203;84;21408;-79
2020/12/03 13:14:56;;;;;;;58.02;38.08;;;;;;;-0.11;88.39;101272.41;1673318;84;21239;-78
2020/12/03 13:18:03;;;;;;;84.47;65.70;;;;;;;-0.07;88.25;101276.67;1676838;84;21936;-79
2020/12/03 13:21:12;;;;;;;64.95;44.75;;;;;;;-0.04;88.07;101280.07;1675791;84;21365;-79
2020/12/03 13:24:17;;;;;;;147.57;121.13;;;;;;;-0.06;87.76;101271.68;1692035;83;21342;-78
2020/12/03 13:27:24;;;;;;;77.80;57.17;;;;;;;-0.11;87.75;101269.73;1674513;83;21221;-79
2020/12/03 13:30:35;;;;;;;96.67;68.22;;;;;;;-0.13;87.82;101270.30;1731013;80;21204;-79
2020/12/03 13:33:39;;;;;;;74.03;52.30;;;;;;;-0.16;87.92;101266.42;1761377;80;21196;-78
2020/12/03 13:36:47;;;;;;;64.70;40.88;;;;;;;-0.18;88.06;101281.31;1756647;80;21220;-77
2020/12/03 13:39:52;;;;;;;44.40;28.60;;;;;;;-0.19;88.23;101272.83;1758942;80;21348;-78
2020/12/03 13:43:00;;;;;;;57.03;38.15;;;;;;;-0.14;88.34;101271.23;1759003;80;21192;-78
2020/12/03 13:46:10;;;;;;;62.90;39.08;;;;;;;-0.15;88.36;101273.53;1758711;80;21327;-80
2020/12/03 13:49:17;;;;;;;63.48;37.00;;;;;;;-0.11;88.42;101266.56;1759183;80;21952;-79
2020/12/03 13:52:24;;;;;;;87.27;63.05;;;;;;;-0.12;88.35;101270.20;1756194;80;21303;-78
2020/12/03 13:55:30;;;;;;;79.10;57.33;;;;;;;-0.12;88.37;101280.09;1757156;80;21333;-78
2020/12/03 13:58:36;;;;;;;72.20;45.08;;;;;;;-0.21;88.37;101284.64;1749653;81;21586;-78
2020/12/03 14:01:42;;;;;;;56.53;36.42;;;;;;;-0.28;88.60;101280.08;1747593;81;21212;-78
2020/12/03 14:04:47;;;;;;;46.42;23.27;;;;;;;-0.24;88.88;101292.86;1743843;81;21319;-78
2020/12/03 14:07:53;;;;;;;44.58;23.55;;;;;;;-0.25;88.99;101302.75;1750941;81;21868;-79
2020/12/03 14:10:58;;;;;;;47.33;22.73;;;;;;;-0.29;89.12;101310.58;1756960;80;21326;-78
2020/12/03 14:14:04;;;;;;;48.10;27.95;;;;;;;-0.33;89.25;101307.66;1755928;80;21303;-78
2020/12/03 14:17:10;;;;;;;41.63;22.75;;;;;;;-0.39;89.36;101307.52;1759352;80;21295;-77
2020/12/03 14:20:19;;;;;;;47.78;27.27;;;;;;;-0.38;89.50;101301.66;1756204;80;21208;-78
2020/12/03 14:23:25;;;;;;;67.32;44.10;;;;;;;-0.41;89.50;101301.84;1760021;80;21347;-78
2020/12/03 14:26:32;;;;;;;73.62;53.90;;;;;;;-0.45;89.61;101286.83;1754950;80;22608;-78
2020/12/03 14:29:44;;;;;;;58.05;37.93;;;;;;;-0.46;89.69;101280.59;1757860;80;21854;-78
2020/12/03 14:32:50;;;;;;;118.57;92.37;;;;;;;-0.40;89.74;101280.25;1754099;80;21695;-77
2020/12/03 14:35:56;;;;;;;61.88;40.52;;;;;;;-0.40;89.53;101265.95;1741789;82;21342;-78
2020/12/03 14:39:02;;;;;;;65.17;45.10;;;;;;;-0.42;89.38;101252.60;1762329;80;21653;-78
2020/12/03 14:42:07;;;;;;;65.92;45.05;;;;;;;-0.40;89.38;101264.13;1746038;81;21279;-78
2020/12/03 14:45:21;;;;;;;80.07;55.48;;;;;;;-0.41;89.46;101257.02;1744528;80;21677;-78
2020/12/03 14:48:27;;;;;;;52.17;32.40;;;;;;;-0.44;89.59;101256.30;1744336;82;21762;-78
2020/12/03 14:51:34;;;;;;;71.53;48.10;;;;;;;-0.46;89.78;101256.40;1746314;82;21287;-78
2020/12/03 14:54:41;;;;;;;90.90;70.20;;;;;;;-0.50;89.78;101256.17;1746769;82;21205;-78
2020/12/03 14:57:47;;;;;;;46.68;25.52;;;;;;;-0.56;89.81;101268.60;1745964;82;21303;-78
2020/12/03 15:00:53;;;;;;;55.43;33.50;;;;;;;-0.63;89.93;101268.52;1746305;82;21319;-78
2020/12/03 15:03:58;;;;;;;54.25;35.23;;;;;;;-0.65;90.15;101262.38;1747033;82;21284;-78
2020/12/03 15:07:05;;;;;;;63.20;40.85;;;;;;;-0.63;90.33;101256.42;1747698;82;21201;-78